createdAt,value
2023-02-12T00:01:36.081Z,97769.94
2023-02-12T00:04:02.915Z,97778.66
2023-02-12T00:06:29.769Z,97781.56
2023-02-12T00:08:56.920Z,97789.69
2023-02-12T00:11:24.963Z,97793.78
2023-02-12T00:13:52.849Z,97785.22
2023-02-12T00:16:20.974Z,97793.78
2023-02-12T00:18:47.922Z,97798.22
2023-02-12T00:21:14.965Z,97792.50
2023-02-12T00:23:41.836Z,97808.75
2023-02-12T00:26:12.868Z,97811.50
2023-02-12T00:28:45.420Z,97821.22
2023-02-12T00:31:14.576Z,97831.16
2023-02-12T00:33:41.580Z,97836.19
2023-02-12T00:36:08.738Z,97828.03
2023-02-12T00:38:35.639Z,97844.19
2023-02-12T00:41:03.215Z,97859.50
2023-02-12T00:43:30.076Z,97873.91
2023-02-12T00:45:57.493Z,97867.34
2023-02-12T00:48:24.592Z,97880.50
2023-02-12T00:50:51.406Z,97894.88
2023-02-12T00:53:18.229Z,97892.34
2023-02-12T00:55:45.264Z,97915.22
2023-02-12T00:58:13.126Z,97921.03
2023-02-12T01:00:40.090Z,97925.03
2023-02-12T01:03:06.912Z,97930.31
2023-02-12T01:18:17.698Z,97971.72
2023-02-12T01:20:44.809Z,97963.53
2023-02-12T01:23:11.776Z,97975.44
2023-02-12T01:25:39.196Z,97988.06
2023-02-12T01:28:06.228Z,97994.78
2023-02-12T01:30:33.118Z,98001.06
2023-02-12T01:33:01.114Z,98003.88
2023-02-12T01:35:28.135Z,98015.97
2023-02-12T01:37:56.863Z,98006.78
2023-02-12T01:40:26.834Z,98023.50
2023-02-12T01:42:53.726Z,98029.88
2023-02-12T01:45:23.619Z,98027.59
2023-02-12T01:47:51.020Z,98047.56
2023-02-12T01:50:20.318Z,98055.38
2023-02-12T01:52:50.731Z,98052.72
2023-02-12T01:55:19.279Z,98067.72
2023-02-12T01:57:47.862Z,98082.25
2023-02-12T02:00:21.348Z,98073.22
2023-02-12T02:02:55.188Z,98098.59
2023-02-12T02:05:32.034Z,98101.09
2023-02-12T02:08:25.452Z,98090.09
2023-02-12T02:10:52.559Z,98091.56
2023-02-12T02:13:38.326Z,98111.88
2023-02-12T02:16:26.914Z,98124.56
2023-02-12T02:18:58.781Z,98132.16
2023-02-12T02:21:44.195Z,98149.94
2023-02-12T02:24:33.263Z,98141.41
2023-02-12T02:27:15.646Z,98151.97
2023-02-12T02:30:05.922Z,98156.88
2023-02-12T02:32:38.748Z,98169.75
2023-02-12T02:35:12.832Z,98181.09
2023-02-12T02:37:45.627Z,98183.88
2023-02-12T02:40:12.601Z,98191.63
2023-02-12T02:42:44.354Z,98177.47
2023-02-12T02:45:15.529Z,98196.91
2023-02-12T02:47:56.668Z,98206.13
2023-02-12T02:50:25.719Z,98213.38
2023-02-12T02:53:13.936Z,98222.75
2023-02-12T02:55:44.783Z,98227.03
2023-02-12T02:58:16.469Z,98222.56
2023-02-12T03:00:53.115Z,98225.19
2023-02-12T03:03:49.257Z,98239.22
2023-02-12T03:06:27.026Z,98240.69
2023-02-12T03:08:58.498Z,98251.91
2023-02-12T03:11:30.943Z,98256.19
2023-02-12T03:14:00.883Z,98279.41
2023-02-12T03:16:32.603Z,98283.03
2023-02-12T03:19:05.661Z,98277.94
2023-02-12T03:21:47.043Z,98299.34
2023-02-12T03:24:20.136Z,98299.50
2023-02-12T03:26:52.244Z,98311.50
2023-02-12T03:29:19.160Z,98313.50
2023-02-12T03:31:57.194Z,98328.66
2023-02-12T03:34:30.295Z,98343.47
2023-02-12T03:36:59.593Z,98337.22
2023-02-12T03:39:58.490Z,98331.97
2023-02-12T03:42:44.168Z,98355.00
2023-02-12T03:45:31.456Z,98352.84
2023-02-12T03:48:12.151Z,98346.44
2023-02-12T03:50:45.139Z,98367.03
2023-02-12T03:53:12.264Z,98367.84
2023-02-12T03:55:41.947Z,98372.44
2023-02-12T03:58:11.029Z,98365.34
2023-02-12T04:00:38.900Z,98384.31
2023-02-12T04:03:06.563Z,98378.53
2023-02-12T04:05:33.608Z,98390.88
2023-02-12T04:08:05.152Z,98400.72
2023-02-12T04:10:53.928Z,98400.91
2023-02-12T04:13:35.858Z,98406.31
2023-02-12T04:16:08.331Z,98419.16
2023-02-12T04:18:42.577Z,98416.84
2023-02-12T04:21:36.911Z,98433.44
2023-02-12T04:24:46.732Z,98438.38
2023-02-12T04:27:26.932Z,98456.31
2023-02-12T04:30:06.400Z,98439.19
2023-02-12T04:32:44.279Z,98452.34
2023-02-12T04:35:21.965Z,98463.03
2023-02-12T04:38:27.770Z,98474.41
2023-02-12T04:40:55.100Z,98466.16
2023-02-12T04:43:29.628Z,98474.88
2023-02-12T04:45:57.247Z,98484.59
2023-02-12T04:48:24.958Z,98484.88
2023-02-12T04:50:52.107Z,98476.16
2023-02-12T04:53:22.532Z,98508.56
2023-02-12T04:55:51.659Z,98515.63
2023-02-12T04:58:19.800Z,98519.09
2023-02-12T05:00:46.719Z,98500.38
2023-02-12T05:03:13.656Z,98526.03
2023-02-12T05:05:40.573Z,98525.69
2023-02-12T05:08:07.668Z,98505.44
2023-02-12T05:10:34.633Z,98551.81
2023-02-12T05:13:01.579Z,98546.56
2023-02-12T05:15:28.832Z,98562.19
2023-02-12T05:17:55.840Z,98563.19
2023-02-12T05:20:22.768Z,98584.25
2023-02-12T05:22:53.179Z,98583.09
2023-02-12T05:25:20.339Z,98574.50
2023-02-12T05:27:47.586Z,98598.53
2023-02-12T05:30:17.213Z,98583.53
2023-02-12T05:32:44.228Z,98612.31
2023-02-12T05:35:11.213Z,98625.31
2023-02-12T05:37:38.239Z,98591.25
2023-02-12T05:40:08.974Z,98630.53
2023-02-12T05:42:36.129Z,98637.28
2023-02-12T05:45:03.066Z,98644.19
2023-02-12T05:47:30.522Z,98639.38
2023-02-12T05:49:57.595Z,98636.59
2023-02-12T05:52:24.633Z,98650.28
2023-02-12T05:54:51.579Z,98660.97
2023-02-12T05:57:18.610Z,98655.34
2023-02-12T05:59:45.711Z,98674.88
2023-02-12T06:02:12.703Z,98664.63
2023-02-12T06:04:39.729Z,98676.97
2023-02-12T06:07:07.614Z,98680.88
2023-02-12T06:09:35.354Z,98682.69
2023-02-12T06:12:04.893Z,98689.81
2023-02-12T06:14:32.211Z,98692.63
2023-02-12T06:16:59.591Z,98703.16
2023-02-12T06:19:26.687Z,98714.50
2023-02-12T06:21:53.626Z,98723.88
2023-02-12T06:24:20.625Z,98730.78
2023-02-12T06:26:50.935Z,98735.47
2023-02-12T06:29:19.083Z,98751.63
2023-02-12T06:31:46.600Z,98749.06
2023-02-12T06:34:15.383Z,98758.09
2023-02-12T06:36:45.048Z,98768.31
2023-02-12T06:39:13.469Z,98776.75
2023-02-12T06:41:44.129Z,98778.53
2023-02-12T06:44:12.650Z,98774.88
2023-02-12T06:46:40.021Z,98781.91
2023-02-12T06:49:07.198Z,98783.19
2023-02-12T06:51:36.716Z,98804.09
2023-02-12T06:54:05.936Z,98804.09
2023-02-12T06:59:17.617Z,98789.06
2023-02-12T07:01:44.845Z,98804.63
2023-02-12T07:04:11.912Z,98820.03
2023-02-12T07:06:46.539Z,98828.63
2023-02-12T07:09:16.294Z,98830.78
2023-02-12T07:11:45.546Z,98835.16
2023-02-12T07:14:15.690Z,98837.19
2023-02-12T07:16:45.304Z,98846.59
2023-02-12T07:19:13.981Z,98839.91
2023-02-12T07:21:41.607Z,98849.31
2023-02-12T07:24:12.069Z,98849.06
2023-02-12T07:26:39.652Z,98846.59
2023-02-12T07:29:06.795Z,98855.47
2023-02-12T07:31:34.252Z,98844.69
2023-02-12T07:34:02.175Z,98880.66
2023-02-12T07:36:33.368Z,98890.88
2023-02-12T07:39:01.781Z,98876.22
2023-02-12T07:41:31.682Z,98884.41
2023-02-12T07:44:01.492Z,98888.47
2023-02-12T07:46:32.313Z,98886.06
2023-02-12T07:49:06.009Z,98898.28
2023-02-12T07:51:36.829Z,98902.50
2023-02-12T07:54:04.145Z,98906.88
2023-02-12T07:56:35.458Z,98931.69
2023-02-12T07:59:05.163Z,98930.41
2023-02-12T08:01:39.435Z,98930.25
2023-02-12T08:04:14.137Z,98902.72
2023-02-12T08:06:46.390Z,98938.31
2023-02-12T08:09:25.106Z,98928.56
2023-02-12T08:11:52.325Z,98952.50
2023-02-12T08:14:26.288Z,98953.19
2023-02-12T08:16:54.488Z,98961.00
2023-02-12T08:19:26.333Z,98964.16
2023-02-12T08:21:57.578Z,98966.75
2023-02-12T08:24:25.146Z,98968.66
2023-02-12T08:26:52.470Z,98972.19
2023-02-12T08:32:14.712Z,98982.06
2023-02-12T08:34:45.072Z,98971.03
2023-02-12T08:37:15.974Z,98965.44
2023-02-12T08:39:43.289Z,98976.53
2023-02-12T08:42:11.269Z,98989.38
2023-02-12T08:44:39.368Z,98995.09
2023-02-12T08:47:07.280Z,99000.31
2023-02-12T08:49:45.633Z,99001.22
2023-02-12T08:52:12.663Z,98995.03
2023-02-12T08:54:40.393Z,98990.28
2023-02-12T08:57:07.369Z,99001.16
2023-02-12T08:59:34.353Z,99006.69
2023-02-12T09:02:04.734Z,99010.09
2023-02-12T09:04:36.580Z,99000.81
2023-02-12T09:07:04.676Z,99026.88
2023-02-12T09:09:31.635Z,99029.28
2023-02-12T09:12:02.017Z,99025.47
2023-02-12T09:14:29.045Z,99031.88
2023-02-12T09:16:57.792Z,99037.00
2023-02-12T09:19:25.079Z,99030.97
2023-02-12T09:21:56.876Z,99038.56
2023-02-12T09:24:25.857Z,99059.38
2023-02-12T09:26:52.858Z,99045.34
2023-02-12T09:29:19.848Z,99069.28
2023-02-12T09:31:47.549Z,99058.59
2023-02-12T09:34:15.907Z,99061.53
2023-02-12T09:36:43.027Z,99057.78
2023-02-12T09:39:15.137Z,99050.88
2023-02-12T09:42:19.733Z,99060.97
2023-02-12T09:45:08.076Z,99065.91
2023-02-12T09:48:32.951Z,99059.31
2023-02-12T09:51:01.155Z,99062.22
2023-02-12T09:53:30.851Z,99079.38
2023-02-12T09:55:59.653Z,99057.13
2023-02-12T09:58:55.471Z,99060.56
2023-02-12T10:01:23.083Z,99081.78
2023-02-12T10:03:52.051Z,99080.63
2023-02-12T10:06:25.632Z,99083.66
2023-02-12T10:09:13.812Z,99101.56
2023-02-12T10:11:53.354Z,99083.00
2023-02-12T10:14:29.197Z,99083.19
2023-02-12T10:17:19.059Z,99087.66
2023-02-12T10:20:07.823Z,99097.41
2023-02-12T10:22:51.279Z,99084.97
2023-02-12T10:25:46.815Z,99100.22
2023-02-12T10:31:44.228Z,99101.25
2023-02-12T10:34:37.587Z,99101.44
2023-02-12T10:37:29.160Z,99101.78
2023-02-12T10:40:03.235Z,99110.41
2023-02-12T10:42:40.572Z,99106.03
2023-02-12T10:45:14.201Z,99108.22
2023-02-12T10:47:41.259Z,99123.31
2023-02-12T10:50:37.658Z,99128.78
2023-02-12T10:53:06.046Z,99123.06
2023-02-12T10:55:35.604Z,99117.38
2023-02-12T10:58:05.022Z,99136.09
2023-02-12T11:00:32.665Z,99137.47
2023-02-12T11:03:14.044Z,99142.09
2023-02-12T11:05:43.250Z,99147.38
2023-02-12T11:08:36.324Z,99161.84
2023-02-12T11:11:13.928Z,99160.47
2023-02-12T11:13:45.952Z,99161.94
2023-02-12T11:16:13.438Z,99160.28
2023-02-12T11:18:40.622Z,99170.09
2023-02-12T11:21:12.787Z,99162.06
2023-02-12T11:23:44.328Z,99170.53
2023-02-12T11:26:21.041Z,99165.56
2023-02-12T11:28:58.645Z,99167.69
2023-02-12T11:31:34.254Z,99183.78
2023-02-12T11:34:15.883Z,99173.81
2023-02-12T11:36:48.387Z,99192.72
2023-02-12T11:39:26.959Z,99198.09
2023-02-12T11:41:59.256Z,99188.13
2023-02-12T11:44:35.030Z,99198.34
2023-02-12T11:47:09.457Z,99204.28
2023-02-12T11:49:44.620Z,99210.59
2023-02-12T11:52:32.814Z,99219.50
2023-02-12T11:55:07.099Z,99223.84
2023-02-12T11:57:43.384Z,99219.72
2023-02-12T12:00:24.892Z,99234.13
2023-02-12T12:03:11.642Z,99233.50
2023-02-12T12:05:47.749Z,99236.25
2023-02-12T12:08:30.818Z,99240.31
2023-02-12T12:11:12.153Z,99244.53
2023-02-12T12:13:43.632Z,99265.47
2023-02-12T12:16:33.191Z,99269.94
2023-02-12T12:19:44.613Z,99265.50
2023-02-12T12:22:35.805Z,99280.88
2023-02-12T12:25:06.402Z,99289.81
2023-02-12T12:28:03.508Z,99286.34
2023-02-12T12:30:52.043Z,99299.50
2023-02-12T12:33:32.805Z,99305.41
2023-02-12T12:36:24.877Z,99310.34
2023-02-12T12:39:13.579Z,99308.41
2023-02-12T12:42:01.939Z,99306.44
2023-02-12T12:44:52.828Z,99311.09
2023-02-12T12:47:52.374Z,99312.94
2023-02-12T12:50:25.424Z,99325.38
2023-02-12T12:53:28.094Z,99324.09
2023-02-12T12:56:01.289Z,99340.25
2023-02-12T12:58:51.592Z,99345.25
2023-02-12T13:01:22.493Z,99335.72
2023-02-12T13:04:27.688Z,99345.63
2023-02-12T13:07:32.897Z,99349.63
2023-02-12T13:10:13.169Z,99357.63
2023-02-12T13:13:08.892Z,99366.78
2023-02-12T13:18:52.218Z,99357.31
2023-02-12T13:21:47.140Z,99360.88
2023-02-12T13:24:25.750Z,99377.91
2023-02-12T13:27:09.901Z,99376.34
2023-02-12T13:29:43.265Z,99385.56
2023-02-12T13:32:25.844Z,99390.25
2023-02-12T13:34:55.713Z,99401.91
2023-02-12T13:37:38.967Z,99396.69
2023-02-12T13:40:10.024Z,99401.84
2023-02-12T13:42:43.453Z,99409.41
2023-02-12T13:45:42.047Z,99401.38
2023-02-12T13:48:46.529Z,99406.84
2023-02-12T13:51:33.858Z,99413.16
2023-02-12T13:54:31.199Z,99417.84
2023-02-12T13:57:01.133Z,99413.81
2023-02-12T13:59:39.750Z,99422.41
2023-02-12T14:02:13.320Z,99428.81
2023-02-12T14:04:54.415Z,99432.13
2023-02-12T14:07:25.302Z,99420.75
2023-02-12T14:09:54.616Z,99435.13
2023-02-12T14:12:24.482Z,99437.91
2023-02-12T14:14:56.516Z,99436.63
2023-02-12T14:17:32.166Z,99448.63
2023-02-12T14:20:33.881Z,99446.28
2023-02-12T14:23:19.864Z,99448.31
2023-02-12T14:26:14.692Z,99445.94
2023-02-12T14:28:55.066Z,99443.41
2023-02-12T14:31:39.632Z,99453.47
2023-02-12T14:34:06.602Z,99461.50
2023-02-12T14:36:43.043Z,99476.00
2023-02-12T14:39:22.865Z,99476.38
2023-02-12T14:42:16.177Z,99483.50
2023-02-12T14:44:57.697Z,99479.47
2023-02-12T14:47:31.132Z,99482.22
2023-02-12T14:50:02.750Z,99495.75
2023-02-12T14:52:35.376Z,99503.25
2023-02-12T14:55:07.171Z,99503.34
2023-02-12T14:57:40.033Z,99494.47
2023-02-12T15:00:22.528Z,99496.13
2023-02-12T15:03:26.659Z,99507.72
2023-02-12T15:06:21.438Z,99521.03
2023-02-12T15:08:57.736Z,99527.94
2023-02-12T15:11:34.241Z,99532.47
2023-02-12T15:14:09.244Z,99541.47
2023-02-12T15:16:55.831Z,99543.78
2023-02-12T15:19:40.908Z,99542.97
2023-02-12T15:22:36.832Z,99549.78
2023-02-12T15:25:27.456Z,99552.78
2023-02-12T15:28:26.548Z,99556.88
2023-02-12T15:30:55.193Z,99552.31
2023-02-12T15:33:28.679Z,99558.66
2023-02-12T15:35:56.386Z,99562.06
2023-02-12T15:38:32.152Z,99563.34
2023-02-12T15:41:01.818Z,99554.47
2023-02-12T15:43:35.692Z,99569.97
2023-02-12T15:46:12.062Z,99574.97
2023-02-12T15:48:45.433Z,99581.88
2023-02-12T15:51:48.431Z,99582.19
2023-02-12T15:54:22.444Z,99574.56
2023-02-12T15:56:51.808Z,99575.44
2023-02-12T15:59:22.435Z,99571.97
2023-02-12T16:02:01.745Z,99562.91
2023-02-12T16:04:32.288Z,99573.53
2023-02-12T16:07:00.672Z,99581.31
2023-02-12T16:09:39.302Z,99575.00
2023-02-12T16:12:11.411Z,99585.25
2023-02-12T16:15:22.782Z,99584.19
2023-02-12T16:17:49.737Z,99588.84
2023-02-12T16:20:22.814Z,99592.66
2023-02-12T16:22:51.661Z,99581.81
2023-02-12T16:25:23.708Z,99593.00
2023-02-12T16:28:15.456Z,99594.69
2023-02-12T16:30:43.483Z,99599.34
2023-02-12T16:33:47.663Z,99603.97
2023-02-12T16:36:32.167Z,99600.53
2023-02-12T16:39:03.193Z,99603.63
2023-02-12T16:41:34.208Z,99614.38
2023-02-12T16:44:01.364Z,99613.53
2023-02-12T16:46:50.081Z,99620.34
2023-02-12T16:49:19.999Z,99610.66
2023-02-12T16:51:48.992Z,99617.59
2023-02-12T16:54:33.675Z,99604.34
2023-02-12T16:57:03.748Z,99609.72
2023-02-12T16:59:31.037Z,99618.06
2023-02-12T17:02:04.940Z,99621.38
2023-02-12T17:04:44.886Z,99627.84
2023-02-12T17:07:23.906Z,99609.94
2023-02-12T17:09:51.968Z,99632.97
2023-02-12T17:12:19.655Z,99618.53
2023-02-12T17:14:47.217Z,99618.53
2023-02-12T17:17:14.914Z,99640.69
2023-02-12T17:19:46.695Z,99628.19
2023-02-12T17:22:26.418Z,99622.41
2023-02-12T17:24:53.519Z,99636.16
2023-02-12T17:27:33.143Z,99628.72
2023-02-12T17:30:00.222Z,99639.97
2023-02-12T17:32:29.533Z,99643.91
2023-02-12T17:35:10.120Z,99641.47
2023-02-12T17:37:45.619Z,99634.66
2023-02-12T17:40:17.523Z,99633.25
2023-02-12T17:42:47.005Z,99630.47
2023-02-12T17:45:22.542Z,99633.50
2023-02-12T17:47:54.664Z,99626.94
2023-02-12T17:50:23.460Z,99634.81
2023-02-12T17:52:53.406Z,99636.78
2023-02-12T17:55:34.629Z,99648.00
2023-02-12T17:58:03.612Z,99625.63
2023-02-12T18:00:32.294Z,99643.88
2023-02-12T18:03:00.300Z,99646.94
2023-02-12T18:05:27.530Z,99643.81
2023-02-12T18:07:56.499Z,99638.91
2023-02-12T18:10:27.705Z,99648.50
2023-02-12T18:12:55.033Z,99635.28
2023-02-12T18:15:22.348Z,99644.13
2023-02-12T18:17:51.535Z,99636.00
2023-02-12T18:21:37.456Z,99656.69
2023-02-12T18:24:07.853Z,99653.66
2023-02-12T18:26:37.546Z,99653.47
2023-02-12T18:29:04.713Z,99645.94
2023-02-12T18:31:32.239Z,99655.34
2023-02-12T18:33:59.517Z,99658.88
2023-02-12T18:36:26.925Z,99657.53
2023-02-12T18:39:10.589Z,99648.13
2023-02-12T18:41:40.295Z,99658.38
2023-02-12T18:44:08.064Z,99653.56
2023-02-12T18:46:35.406Z,99649.66
2023-02-12T18:49:03.235Z,99661.44
2023-02-12T18:51:32.809Z,99672.31
2023-02-12T18:54:07.505Z,99668.34
2023-02-12T18:56:36.022Z,99680.38
2023-02-12T18:59:05.321Z,99677.38
2023-02-12T19:01:33.386Z,99679.22
2023-02-12T19:04:02.682Z,99664.00
2023-02-12T19:06:34.158Z,99673.31
2023-02-12T19:09:03.712Z,99674.47
2023-02-12T19:11:31.361Z,99663.81
2023-02-12T19:14:02.443Z,99676.78
2023-02-12T19:16:29.833Z,99667.84
2023-02-12T19:19:04.003Z,99680.84
2023-02-12T19:21:34.947Z,99669.50
2023-02-12T19:24:05.647Z,99685.94
2023-02-12T19:26:35.748Z,99677.97
2023-02-12T19:29:04.477Z,99679.44
2023-02-12T19:31:36.886Z,99679.66
2023-02-12T19:34:13.598Z,99666.50
2023-02-12T19:36:40.959Z,99673.56
2023-02-12T19:39:08.430Z,99674.31
2023-02-12T19:41:52.514Z,99680.50
2023-02-12T19:44:23.803Z,99663.53
2023-02-12T19:46:51.799Z,99675.31
2023-02-12T19:49:24.367Z,99660.59
2023-02-12T19:51:54.559Z,99643.66
2023-02-12T19:54:26.032Z,99641.97
2023-02-12T19:56:57.132Z,99654.94
2023-02-12T19:59:27.243Z,99661.47
2023-02-12T20:01:54.827Z,99649.31
2023-02-12T20:04:23.564Z,99646.59
2023-02-12T20:06:54.705Z,99648.78
2023-02-12T20:09:26.254Z,99642.03
2023-02-12T20:11:53.688Z,99637.59
2023-02-12T20:14:22.835Z,99639.81
2023-02-12T20:16:51.385Z,99642.44
2023-02-12T20:19:24.482Z,99632.91
2023-02-12T20:21:56.250Z,99631.44
2023-02-12T20:24:27.802Z,99633.84
2023-02-12T20:26:57.721Z,99631.66
2023-02-12T20:29:49.761Z,99625.50
2023-02-12T20:32:16.751Z,99630.00
2023-02-12T20:34:50.926Z,99632.19
2023-02-12T20:37:19.073Z,99630.09
2023-02-12T20:39:48.177Z,99613.25
2023-02-12T20:42:15.331Z,99616.59
2023-02-12T20:44:42.467Z,99618.06
2023-02-12T20:47:09.700Z,99625.59
2023-02-12T20:49:36.854Z,99602.91
2023-02-12T20:52:04.109Z,99627.38
2023-02-12T20:54:31.075Z,99604.88
2023-02-12T20:57:00.277Z,99615.88
2023-02-12T20:59:27.331Z,99620.06
2023-02-12T21:01:54.449Z,99619.44
2023-02-12T21:04:21.388Z,99626.72
2023-02-12T21:06:56.902Z,99622.34
2023-02-12T21:09:24.107Z,99623.72
2023-02-12T21:11:51.122Z,99624.56
2023-02-12T21:14:23.646Z,99622.78
2023-02-12T21:16:53.738Z,99634.81
2023-02-12T21:19:21.630Z,99619.97
2023-02-12T21:21:49.083Z,99612.03
2023-02-12T21:24:18.826Z,99621.22
2023-02-12T21:26:48.977Z,99619.97
2023-02-12T21:29:16.076Z,99620.19
2023-02-12T21:31:45.217Z,99610.16
2023-02-12T21:34:18.178Z,99616.00
2023-02-12T21:36:46.731Z,99612.66
2023-02-12T21:39:24.861Z,99632.72
2023-02-12T21:41:57.507Z,99623.84
2023-02-12T21:44:25.202Z,99627.50
2023-02-12T21:46:53.520Z,99624.84
2023-02-12T21:49:28.468Z,99605.88
2023-02-12T21:52:02.416Z,99593.13
2023-02-12T21:54:30.524Z,99615.19
2023-02-12T21:56:58.756Z,99608.88
2023-02-12T21:59:26.722Z,99594.53
2023-02-12T22:01:59.259Z,99601.25
2023-02-12T22:04:27.371Z,99596.03
2023-02-12T22:06:54.763Z,99588.41
2023-02-12T22:09:23.496Z,99596.78
2023-02-12T22:11:59.613Z,99576.84
2023-02-12T22:14:29.689Z,99578.28
2023-02-12T22:16:56.972Z,99573.16
2023-02-12T22:19:24.107Z,99572.44
2023-02-12T22:21:54.195Z,99579.91
2023-02-12T22:24:21.498Z,99569.06
2023-02-12T22:26:48.687Z,99548.97
2023-02-12T22:29:16.487Z,99581.38
2023-02-12T22:31:47.035Z,99568.06
2023-02-12T22:34:17.412Z,99578.31
2023-02-12T22:36:45.168Z,99583.28
2023-02-12T22:39:13.266Z,99574.44
2023-02-12T22:41:42.462Z,99585.16
2023-02-12T22:44:13.425Z,99570.91
2023-02-12T22:46:41.877Z,99582.19
2023-02-12T22:49:09.487Z,99573.09
2023-02-12T22:51:39.038Z,99580.91
2023-02-12T22:54:06.796Z,99579.41
2023-02-12T22:56:34.506Z,99582.50
2023-02-12T22:59:02.610Z,99570.88
2023-02-12T23:01:30.468Z,99579.91
2023-02-12T23:03:58.130Z,99568.28
2023-02-12T23:06:27.339Z,99566.09
2023-02-12T23:08:59.100Z,99572.06
2023-02-12T23:11:28.207Z,99560.88
2023-02-12T23:13:55.878Z,99566.91
2023-02-12T23:16:23.000Z,99573.09
2023-02-12T23:18:55.569Z,99576.69
2023-02-12T23:21:22.544Z,99565.59
2023-02-12T23:23:49.489Z,99562.53
2023-02-12T23:26:17.164Z,99558.81
2023-02-12T23:28:44.433Z,99568.22
2023-02-12T23:31:11.660Z,99568.31
2023-02-12T23:33:38.602Z,99572.34
2023-02-12T23:36:06.022Z,99560.13
2023-02-12T23:38:33.057Z,99564.03
2023-02-12T23:41:00.132Z,99561.97
2023-02-12T23:43:27.198Z,99546.19
2023-02-12T23:45:55.012Z,99543.78
2023-02-12T23:48:25.001Z,99536.78
2023-02-12T23:50:51.974Z,99533.75
2023-02-12T23:53:19.754Z,99519.50
2023-02-12T23:55:50.176Z,99519.63
2023-02-12T23:58:17.183Z,99510.03
